createdAt,value
2022-10-10T00:01:53.711Z,66.14
2022-10-10T00:05:21.998Z,65.93
2022-10-10T00:08:49.500Z,66.17
2022-10-10T00:12:21.499Z,66.42
2022-10-10T00:15:51.537Z,66.21
2022-10-10T00:19:20.600Z,66.38
2022-10-10T00:22:48.313Z,66.35
2022-10-10T00:26:19.218Z,66.11
2022-10-10T00:29:45.952Z,66.25
2022-10-10T00:33:14.785Z,66.16
2022-10-10T00:36:43.092Z,66.18
2022-10-10T00:40:13.390Z,66.28
2022-10-10T00:43:40.717Z,66.11
2022-10-10T00:47:07.715Z,66.16
2022-10-10T00:50:37.661Z,66.26
2022-10-10T00:54:07.590Z,66.20
2022-10-10T00:57:34.842Z,66.23
2022-10-10T01:01:01.605Z,66.23
2022-10-10T01:04:43.096Z,66.27
2022-10-10T01:08:11.262Z,66.16
2022-10-10T01:11:53.505Z,66.59
2022-10-10T01:15:29.221Z,66.60
2022-10-10T01:19:06.727Z,66.67
2022-10-10T01:22:45.252Z,67.01
2022-10-10T01:26:36.525Z,66.85
2022-10-10T01:30:07.015Z,66.99
2022-10-10T01:33:40.215Z,66.75
2022-10-10T01:37:16.371Z,66.84
2022-10-10T01:40:52.640Z,66.83
2022-10-10T01:44:20.714Z,66.88
2022-10-10T01:47:47.610Z,66.75
2022-10-10T01:51:30.388Z,66.67
2022-10-10T01:55:09.587Z,66.94
2022-10-10T01:58:54.869Z,66.80
2022-10-10T02:02:32.674Z,66.93
2022-10-10T02:06:05.718Z,66.77
2022-10-10T02:09:40.036Z,66.98
2022-10-10T02:13:11.651Z,66.90
2022-10-10T02:16:43.774Z,67.11
2022-10-10T02:20:15.082Z,67.30
2022-10-10T02:23:44.900Z,67.35
2022-10-10T02:27:23.011Z,67.51
2022-10-10T02:30:53.933Z,67.42
2022-10-10T02:34:23.410Z,67.51
2022-10-10T02:37:53.471Z,67.56
2022-10-10T02:41:22.389Z,67.79
2022-10-10T02:44:50.163Z,67.56
2022-10-10T02:48:17.169Z,67.43
2022-10-10T02:51:44.142Z,67.34
2022-10-10T02:55:12.520Z,67.46
2022-10-10T02:58:38.941Z,67.33
2022-10-10T03:02:06.861Z,67.25
2022-10-10T03:05:34.015Z,67.31
2022-10-10T03:09:01.039Z,67.34
2022-10-10T03:12:27.583Z,67.29
2022-10-10T03:15:54.785Z,67.40
2022-10-10T03:19:21.710Z,67.30
2022-10-10T03:22:49.563Z,67.56
2022-10-10T03:26:16.984Z,67.66
2022-10-10T03:29:43.879Z,67.85
2022-10-10T03:33:11.554Z,67.76
2022-10-10T03:36:38.457Z,67.79
2022-10-10T03:40:05.498Z,67.82
2022-10-10T03:43:31.838Z,67.83
2022-10-10T03:46:58.958Z,67.92
2022-10-10T03:50:25.600Z,67.88
2022-10-10T03:53:52.709Z,67.87
2022-10-10T03:57:19.332Z,67.82
2022-10-10T04:00:46.094Z,67.96
2022-10-10T04:04:12.631Z,67.89
2022-10-10T04:07:39.085Z,67.82
2022-10-10T04:11:05.925Z,67.99
2022-10-10T04:14:32.783Z,68.01
2022-10-10T04:17:59.991Z,68.00
2022-10-10T04:21:28.787Z,67.98
2022-10-10T04:24:56.337Z,68.16
2022-10-10T04:28:23.036Z,68.13
2022-10-10T04:31:49.656Z,68.30
2022-10-10T04:35:16.816Z,68.37
2022-10-10T04:38:44.096Z,68.39
2022-10-10T04:42:10.903Z,68.59
2022-10-10T04:45:37.914Z,68.55
2022-10-10T04:49:05.309Z,68.65
2022-10-10T04:52:32.051Z,68.66
2022-10-10T04:55:59.108Z,68.63
2022-10-10T04:59:26.416Z,68.61
2022-10-10T05:02:55.468Z,68.59
2022-10-10T05:06:22.240Z,68.51
2022-10-10T05:09:52.004Z,68.38
2022-10-10T05:13:19.396Z,68.44
2022-10-10T05:16:45.959Z,68.55
2022-10-10T05:20:17.630Z,68.52
2022-10-10T05:23:44.883Z,68.49
2022-10-10T05:27:11.973Z,68.69
2022-10-10T05:30:38.511Z,68.49
2022-10-10T05:34:05.163Z,68.64
2022-10-10T05:37:32.782Z,68.67
2022-10-10T05:40:59.359Z,68.94
2022-10-10T05:44:26.293Z,69.10
2022-10-10T05:47:56.082Z,69.03
2022-10-10T05:51:24.788Z,69.24
2022-10-10T05:54:52.394Z,69.07
2022-10-10T05:58:21.079Z,69.27
2022-10-10T06:01:48.975Z,69.44
2022-10-10T06:05:16.640Z,69.38
2022-10-10T06:08:43.332Z,69.39
2022-10-10T06:12:10.576Z,69.20
2022-10-10T06:15:37.931Z,69.36
2022-10-10T06:19:05.013Z,69.36
2022-10-10T06:22:32.689Z,69.29
2022-10-10T06:26:00.258Z,69.43
2022-10-10T06:29:27.336Z,69.49
2022-10-10T06:32:56.798Z,69.55
2022-10-10T06:36:23.808Z,69.48
2022-10-10T06:39:50.477Z,69.67
2022-10-10T06:43:19.909Z,69.73
2022-10-10T06:46:47.909Z,69.80
2022-10-10T06:50:14.632Z,70.11
2022-10-10T06:53:44.380Z,70.33
2022-10-10T06:57:11.731Z,70.37
2022-10-10T07:00:38.409Z,70.35
2022-10-10T07:04:06.330Z,70.69
2022-10-10T07:07:33.306Z,70.34
2022-10-10T07:10:59.945Z,70.50
2022-10-10T07:14:26.334Z,70.49
2022-10-10T07:18:00.464Z,70.47
2022-10-10T07:21:27.991Z,70.49
2022-10-10T07:24:55.080Z,70.52
2022-10-10T07:28:22.173Z,70.52
2022-10-10T07:31:49.212Z,70.53
2022-10-10T07:35:15.738Z,70.93
2022-10-10T07:38:42.742Z,70.72
2022-10-10T07:42:10.702Z,70.58
2022-10-10T07:45:39.862Z,70.92
2022-10-10T07:49:06.937Z,70.57
2022-10-10T07:52:34.236Z,70.73
2022-10-10T07:56:00.788Z,70.98
2022-10-10T07:59:28.117Z,71.10
2022-10-10T08:02:55.246Z,71.06
2022-10-10T08:06:22.673Z,70.85
2022-10-10T08:09:49.341Z,71.20
2022-10-10T08:13:15.992Z,71.37
2022-10-10T08:16:42.886Z,71.17
2022-10-10T08:20:10.619Z,71.35
2022-10-10T08:23:38.551Z,71.24
2022-10-10T08:27:08.513Z,71.19
2022-10-10T08:30:35.625Z,70.83
2022-10-10T08:34:05.080Z,71.06
2022-10-10T08:37:37.131Z,71.05
2022-10-10T08:41:09.014Z,70.95
2022-10-10T08:44:43.890Z,70.85
2022-10-10T08:48:16.473Z,70.86
2022-10-10T08:51:51.686Z,70.96
2022-10-10T08:55:24.609Z,71.24
2022-10-10T08:59:01.491Z,70.96
2022-10-10T09:02:56.271Z,70.90
2022-10-10T09:06:39.961Z,71.01
2022-10-10T09:10:20.711Z,71.03
2022-10-10T09:13:54.634Z,70.96
2022-10-10T09:17:39.643Z,70.80
2022-10-10T09:21:16.658Z,70.55
2022-10-10T09:24:50.158Z,70.51
2022-10-10T09:28:21.882Z,70.26
2022-10-10T09:31:53.956Z,70.12
2022-10-10T09:35:24.693Z,70.07
2022-10-10T09:38:55.535Z,69.93
2022-10-10T09:42:30.147Z,69.80
2022-10-10T09:45:58.932Z,69.42
2022-10-10T09:49:27.237Z,69.17
2022-10-10T09:52:55.419Z,69.04
2022-10-10T09:56:25.025Z,68.97
2022-10-10T09:59:52.133Z,68.87
2022-10-10T10:03:23.731Z,68.77
2022-10-10T10:06:52.666Z,68.82
2022-10-10T10:10:24.666Z,68.64
2022-10-10T10:13:58.128Z,68.51
2022-10-10T10:17:26.769Z,68.19
2022-10-10T10:20:55.303Z,67.95
2022-10-10T10:24:31.160Z,67.85
2022-10-10T10:28:18.350Z,67.96
2022-10-10T10:31:59.827Z,67.78
2022-10-10T10:35:33.033Z,67.56
2022-10-10T10:39:08.348Z,67.51
2022-10-10T10:42:56.334Z,67.23
2022-10-10T10:46:35.714Z,66.94
2022-10-10T10:50:28.842Z,66.88
2022-10-10T10:54:03.584Z,66.69
2022-10-10T10:58:00.060Z,66.52
2022-10-10T11:01:55.241Z,66.46
2022-10-10T11:05:44.873Z,65.79
2022-10-10T11:09:44.936Z,65.82
2022-10-10T11:13:15.076Z,65.44
2022-10-10T11:16:49.098Z,65.30
2022-10-10T11:20:24.625Z,65.18
2022-10-10T11:23:58.957Z,64.95
2022-10-10T11:27:30.192Z,64.92
2022-10-10T11:31:03.111Z,64.82
2022-10-10T11:34:35.543Z,64.67
2022-10-10T11:38:12.958Z,64.62
2022-10-10T11:41:44.324Z,64.29
2022-10-10T11:45:18.555Z,63.86
2022-10-10T11:48:54.437Z,63.58
2022-10-10T11:52:33.968Z,63.48
2022-10-10T11:56:09.830Z,63.14
2022-10-10T11:59:43.876Z,62.81
2022-10-10T12:03:11.788Z,62.52
2022-10-10T12:06:43.580Z,62.54
2022-10-10T12:10:17.427Z,62.43
2022-10-10T12:13:44.797Z,61.69
2022-10-10T12:17:22.398Z,61.83
2022-10-10T12:20:49.187Z,61.77
2022-10-10T12:24:16.963Z,61.57
2022-10-10T12:27:49.948Z,61.21
2022-10-10T12:31:33.850Z,60.88
2022-10-10T12:35:05.106Z,60.93
2022-10-10T12:38:31.839Z,60.45
2022-10-10T12:41:58.654Z,60.07
2022-10-10T12:45:58.721Z,59.62
2022-10-10T12:49:52.929Z,59.57
2022-10-10T12:53:23.431Z,59.40
2022-10-10T12:56:54.499Z,59.08
2022-10-10T13:00:24.484Z,58.53
2022-10-10T13:03:54.447Z,58.01
2022-10-10T13:07:26.417Z,57.86
2022-10-10T13:11:08.321Z,57.44
2022-10-10T13:14:43.754Z,57.52
2022-10-10T13:18:13.666Z,57.36
2022-10-10T13:21:41.014Z,57.32
2022-10-10T13:25:13.087Z,57.07
2022-10-10T13:28:40.089Z,56.85
2022-10-10T13:32:23.411Z,56.88
2022-10-10T13:36:10.350Z,56.50
2022-10-10T13:39:46.357Z,56.15
2022-10-10T13:43:21.041Z,55.70
2022-10-10T13:46:52.840Z,55.48
2022-10-10T13:50:30.133Z,55.47
2022-10-10T13:53:57.633Z,55.37
2022-10-10T13:57:29.114Z,55.32
2022-10-10T14:01:01.350Z,55.20
2022-10-10T14:04:34.495Z,55.20
2022-10-10T14:08:03.127Z,55.12
2022-10-10T14:11:35.194Z,55.25
2022-10-10T14:15:06.070Z,55.28
2022-10-10T14:18:37.499Z,55.47
2022-10-10T14:22:04.820Z,55.45
2022-10-10T14:25:35.701Z,55.40
2022-10-10T14:29:04.198Z,55.45
2022-10-10T14:32:33.577Z,55.41
2022-10-10T14:36:05.939Z,55.52
2022-10-10T14:39:33.344Z,55.52
2022-10-10T14:43:00.658Z,55.49
2022-10-10T14:46:27.497Z,55.67
2022-10-10T14:49:57.589Z,55.74
2022-10-10T14:53:25.282Z,55.88
2022-10-10T14:57:08.996Z,55.89
2022-10-10T15:00:37.243Z,56.00
2022-10-10T15:04:06.355Z,56.08
2022-10-10T15:07:34.189Z,56.20
2022-10-10T15:11:01.235Z,56.20
2022-10-10T15:14:28.052Z,56.24
2022-10-10T15:17:55.046Z,56.30
2022-10-10T15:21:23.308Z,56.48
2022-10-10T15:24:50.344Z,56.42
2022-10-10T15:28:17.594Z,56.44
2022-10-10T15:31:46.617Z,56.54
2022-10-10T15:35:18.277Z,56.56
2022-10-10T15:38:48.434Z,56.71
2022-10-10T15:42:22.393Z,56.77
2022-10-10T15:45:55.811Z,56.75
2022-10-10T15:49:39.711Z,56.88
2022-10-10T15:53:07.030Z,57.00
2022-10-10T15:56:34.298Z,57.07
2022-10-10T16:00:04.470Z,57.07
2022-10-10T16:03:39.532Z,57.24
2022-10-10T16:10:54.525Z,57.37
2022-10-10T16:14:22.426Z,57.40
2022-10-10T16:17:49.377Z,57.47
2022-10-10T16:21:21.283Z,57.69
2022-10-10T16:25:10.101Z,57.77
2022-10-10T16:28:36.736Z,57.82
2022-10-10T16:32:04.330Z,58.00
2022-10-10T16:35:32.353Z,58.12
2022-10-10T16:39:02.828Z,58.07
2022-10-10T16:42:33.583Z,58.37
2022-10-10T16:46:06.367Z,58.35
2022-10-10T16:49:34.060Z,58.49
2022-10-10T16:53:01.432Z,58.45
2022-10-10T16:56:30.627Z,58.39
2022-10-10T16:59:59.909Z,58.38
2022-10-10T17:03:28.005Z,58.44
2022-10-10T17:06:55.032Z,58.56
2022-10-10T17:10:26.092Z,58.44
2022-10-10T17:13:57.849Z,58.53
2022-10-10T17:17:26.068Z,58.52
2022-10-10T17:20:53.875Z,58.53
2022-10-10T17:24:22.036Z,58.41
2022-10-10T17:27:55.597Z,58.44
2022-10-10T17:31:22.883Z,58.41
2022-10-10T17:34:51.076Z,58.43
2022-10-10T17:38:38.369Z,58.49
2022-10-10T17:42:07.754Z,58.35
2022-10-10T17:45:38.529Z,58.37
2022-10-10T17:49:07.426Z,58.20
2022-10-10T17:52:41.659Z,58.13
2022-10-10T17:56:18.055Z,58.16
2022-10-10T17:59:45.183Z,58.17
2022-10-10T18:03:13.801Z,57.97
2022-10-10T18:06:41.506Z,57.99
2022-10-10T18:10:10.003Z,58.00
2022-10-10T18:13:37.883Z,57.86
2022-10-10T18:17:17.895Z,57.89
2022-10-10T18:20:45.599Z,57.68
2022-10-10T18:24:18.203Z,57.91
2022-10-10T18:27:45.548Z,57.63
2022-10-10T18:31:15.945Z,57.77
2022-10-10T18:34:46.466Z,57.85
2022-10-10T18:38:13.392Z,57.66
2022-10-10T18:41:40.888Z,57.65
2022-10-10T18:45:09.955Z,57.49
2022-10-10T18:48:39.089Z,57.74
2022-10-10T18:52:13.266Z,57.39
2022-10-10T18:55:42.101Z,57.48
2022-10-10T18:59:17.838Z,57.51
2022-10-10T19:02:50.763Z,57.51
2022-10-10T19:06:22.911Z,57.48
2022-10-10T19:09:53.649Z,57.42
2022-10-10T19:13:24.976Z,57.36
2022-10-10T19:16:52.740Z,57.17
2022-10-10T19:20:28.456Z,57.29
2022-10-10T19:23:57.766Z,57.18
2022-10-10T19:27:25.984Z,57.38
2022-10-10T19:30:55.566Z,57.23
2022-10-10T19:34:24.218Z,57.16
2022-10-10T19:37:52.859Z,57.25
2022-10-10T19:41:25.130Z,57.31
2022-10-10T19:44:53.293Z,57.32
2022-10-10T19:48:24.771Z,57.47
2022-10-10T19:51:55.389Z,57.34
2022-10-10T19:55:23.816Z,57.49
2022-10-10T19:58:58.572Z,57.34
2022-10-10T20:02:28.269Z,57.54
2022-10-10T20:06:01.741Z,57.66
2022-10-10T20:09:30.440Z,57.59
2022-10-10T20:12:58.434Z,57.60
2022-10-10T20:16:28.897Z,57.68
2022-10-10T20:19:56.460Z,57.78
2022-10-10T20:23:39.223Z,57.86
2022-10-10T20:27:05.916Z,57.89
2022-10-10T20:30:47.467Z,58.22
2022-10-10T20:34:14.920Z,58.05
2022-10-10T20:37:45.485Z,57.99
2022-10-10T20:41:23.278Z,58.21
2022-10-10T20:44:55.771Z,58.09
2022-10-10T20:48:24.359Z,58.19
2022-10-10T20:51:54.369Z,58.16
2022-10-10T20:55:22.048Z,58.41
2022-10-10T20:58:53.761Z,58.40
2022-10-10T21:02:21.058Z,58.44
2022-10-10T21:06:02.607Z,58.60
2022-10-10T21:09:37.722Z,58.69
2022-10-10T21:13:05.708Z,58.85
2022-10-10T21:16:37.490Z,58.67
2022-10-10T21:20:05.949Z,58.49
2022-10-10T21:23:37.759Z,58.62
2022-10-10T21:27:08.902Z,58.82
2022-10-10T21:30:39.291Z,58.74
2022-10-10T21:34:11.341Z,58.85
2022-10-10T21:37:39.132Z,58.96
2022-10-10T21:41:11.004Z,59.00
2022-10-10T21:44:37.933Z,58.96
2022-10-10T21:48:05.441Z,59.08
2022-10-10T21:51:48.559Z,59.09
2022-10-10T21:55:14.188Z,59.18
2022-10-10T21:58:42.919Z,59.27
2022-10-10T22:02:11.370Z,59.34
2022-10-10T22:05:42.624Z,59.26
2022-10-10T22:09:12.688Z,59.67
2022-10-10T22:12:40.070Z,59.50
2022-10-10T22:16:07.940Z,59.72
2022-10-10T22:19:35.633Z,59.80
2022-10-10T22:23:02.340Z,59.91
2022-10-10T22:26:29.220Z,60.05
2022-10-10T22:29:56.959Z,60.10
2022-10-10T22:33:26.522Z,60.11
2022-10-10T22:36:56.843Z,60.10
2022-10-10T22:40:23.995Z,60.04
2022-10-10T22:43:51.263Z,60.23
2022-10-10T22:47:18.236Z,60.09
2022-10-10T22:50:44.812Z,60.18
2022-10-10T22:54:12.300Z,60.27
2022-10-10T22:57:43.145Z,60.37
2022-10-10T23:01:12.705Z,60.48
2022-10-10T23:04:40.254Z,60.49
2022-10-10T23:08:07.199Z,60.60
2022-10-10T23:11:34.509Z,60.65
2022-10-10T23:15:03.008Z,60.72
2022-10-10T23:18:30.862Z,60.80
2022-10-10T23:21:58.775Z,60.93
2022-10-10T23:25:25.557Z,61.13
2022-10-10T23:28:54.501Z,61.25
2022-10-10T23:32:23.179Z,61.33
2022-10-10T23:36:00.141Z,61.50
2022-10-10T23:39:26.742Z,61.70
2022-10-10T23:42:55.608Z,61.84
2022-10-10T23:46:22.968Z,61.82
2022-10-10T23:49:49.864Z,61.84
2022-10-10T23:53:16.513Z,61.83
2022-10-10T23:56:42.801Z,61.88
